Lemitar, New Mexico
Current Conditions -  °F | °C
As of 11:35 AM on Saturday 25 Oct 2014 (Local Time) from KONM Reporting Station
Clear Clear  
Wind Chill: 68°   Ceiling: Unl
Heat Index: 68°   Visibility: 10mi
Dew Point: 41°   Wind: 3mph
Humidity: 38%   Direction: 360°N
Pressure: 30.31"   Gusts: NA
Location:  34.16°N, 106.91°W
Report Text: KONM 251735Z AUTO 36003KT 10SM CLR 20/05 A3031 RMK AO2 T02000052
Loading
Personal Weather Stations






























Interactive Weather Map
Tropical Storm Tracking
New forecast layout! Learn more

10-Day Weather Forecast

Advertisements
Track Severe Weather on mobile